Time;durP1;ratioP1;P1;durP2;ratioP2;P2;SDS_P1;SDS_P2;PMS_P1;PMS_P2;Temp;Humidity;BMP_temperature;BMP_pressure;BME280_temperature;BME280_humidity;BME280_pressure;Samples;Min_cycle;Max_cycle;Signal;HPM_P1;HPM_P2
2021/12/13 00:01:23;;;;;;;4.00;2.70;;;;;;;;;;5042818;28;20114;-72
2021/12/13 00:03:54;;;;;;;4.13;2.85;;;;;;;;;;5043640;28;20033;-72
2021/12/13 00:06:29;;;;;;;2.55;2.10;;;;;;;;;;5043385;28;20033;-70
2021/12/13 00:09:00;;;;;;;2.88;1.92;;;;;;;;;;5043531;28;20043;-70
2021/12/13 00:11:31;;;;;;;2.47;1.90;;;;;;;;;;5042503;28;20479;-70
2021/12/13 00:14:07;;;;;;;2.30;2.10;;;;;;;;;;5043558;28;20124;-69
2021/12/13 00:16:38;;;;;;;2.15;1.88;;;;;;;;;;5043099;28;20045;-69
2021/12/13 00:19:07;;;;;;;3.10;2.40;;;;;;;;;;5043036;28;20033;-72
2021/12/13 00:21:44;;;;;;;3.47;2.65;;;;;;;;;;5042330;28;20037;-69
2021/12/13 00:24:22;;;;;;;3.03;2.33;;;;;;;;;;5043240;28;20632;-72
2021/12/13 00:26:50;;;;;;;3.40;2.33;;;;;;;;;;5043350;28;20667;-71
2021/12/13 00:29:23;;;;;;;2.28;2.05;;;;;;;;;;5041401;28;20103;-71
2021/12/13 00:31:58;;;;;;;3.50;2.38;;;;;;;;;;5041960;28;20071;-72
2021/12/13 00:34:31;;;;;;;2.90;2.25;;;;;;;;;;5041797;28;20045;-70
2021/12/13 00:37:08;;;;;;;3.88;2.00;;;;;;;;;;5042938;28;20025;-70
2021/12/13 00:39:44;;;;;;;2.78;1.63;;;;;;;;;;5042898;28;20159;-68
2021/12/13 00:42:10;;;;;;;1.90;1.70;;;;;;;;;;5042582;28;20144;-70
2021/12/13 00:44:41;;;;;;;1.90;1.38;;;;;;;;;;5041962;28;20040;-72
2021/12/13 00:47:14;;;;;;;2.22;1.73;;;;;;;;;;5041588;28;20412;-68
2021/12/13 00:49:46;;;;;;;2.00;1.88;;;;;;;;;;5042435;28;20068;-69
2021/12/13 00:52:15;;;;;;;1.67;1.58;;;;;;;;;;5042483;28;20033;-70
2021/12/13 00:54:43;;;;;;;2.53;2.00;;;;;;;;;;5041732;28;20061;-70
2021/12/13 00:57:41;;;;;;;2.70;1.70;;;;;;;;;;5042100;28;20036;-70
2021/12/13 01:00:27;;;;;;;1.90;1.80;;;;;;;;;;5041902;28;20123;-72
2021/12/13 01:03:03;;;;;;;2.75;2.00;;;;;;;;;;5041110;28;20128;-69
2021/12/13 01:06:05;;;;;;;3.20;1.70;;;;;;;;;;5041327;28;20045;-70
2021/12/13 01:08:43;;;;;;;2.17;1.98;;;;;;;;;;5042260;28;20029;-71
2021/12/13 01:11:27;;;;;;;2.22;1.73;;;;;;;;;;5042118;28;20049;-69
2021/12/13 01:14:06;;;;;;;2.38;1.90;;;;;;;;;;5042092;28;20403;-69
2021/12/13 01:17:07;;;;;;;2.10;1.90;;;;;;;;;;5039909;28;20041;-74
2021/12/13 01:19:49;;;;;;;2.10;1.90;;;;;;;;;;5041291;28;20032;-72
2021/12/13 01:22:49;;;;;;;1.98;1.77;;;;;;;;;;5041955;28;20041;-70
2021/12/13 01:26:02;;;;;;;3.55;1.90;;;;;;;;;;5042022;28;20521;-70
2021/12/13 01:28:28;;;;;;;3.20;2.00;;;;;;;;;;5039836;28;20040;-70
2021/12/13 01:31:04;;;;;;;3.35;2.20;;;;;;;;;;5041822;28;20037;-69
2021/12/13 01:33:31;;;;;;;2.45;1.98;;;;;;;;;;5041992;28;20040;-69
2021/12/13 01:36:00;;;;;;;1.70;1.52;;;;;;;;;;5041478;28;20115;-70
2021/12/13 01:38:34;;;;;;;2.15;1.73;;;;;;;;;;5039496;28;20048;-70
2021/12/13 01:41:24;;;;;;;3.75;1.50;;;;;;;;;;5041418;28;20434;-70
2021/12/13 01:43:54;;;;;;;1.48;1.38;;;;;;;;;;5040909;28;20502;-71
2021/12/13 01:46:22;;;;;;;1.40;1.25;;;;;;;;;;5041396;28;20120;-71
2021/12/13 01:48:52;;;;;;;1.42;1.33;;;;;;;;;;5041647;28;20037;-70
2021/12/13 01:51:24;;;;;;;1.33;1.23;;;;;;;;;;5040640;28;20424;-69
2021/12/13 01:53:54;;;;;;;;;;;;;;;;;;5040706;28;20079;-72
2021/12/13 01:56:40;;;;;;;3.10;1.00;;;;;;;;;;5041198;28;19926;-71
2021/12/13 02:02:10;;;;;;;1.35;1.25;;;;;;;;;;5040656;28;20052;-71
2021/12/13 02:04:36;;;;;;;1.08;0.98;;;;;;;;;;5041260;28;20365;-71
2021/12/13 02:07:04;;;;;;;4.80;1.50;;;;;;;;;;5041063;28;20083;-72
2021/12/13 02:09:35;;;;;;;1.05;0.98;;;;;;;;;;5039616;28;20036;-69
2021/12/13 02:12:05;;;;;;;1.77;1.30;;;;;;;;;;5039999;28;20131;-70
2021/12/13 02:14:33;;;;;;;3.53;1.20;;;;;;;;;;5040969;28;20086;-70
2021/12/13 02:17:10;;;;;;;3.63;1.48;;;;;;;;;;5041359;28;20440;-69
2021/12/13 02:19:47;;;;;;;1.90;1.50;;;;;;;;;;5040907;28;20079;-72
2021/12/13 02:22:37;;;;;;;2.17;1.23;;;;;;;;;;5040171;28;20045;-69
2021/12/13 02:25:24;;;;;;;1.60;1.35;;;;;;;;;;5040791;28;20170;-71
2021/12/13 02:27:58;;;;;;;1.17;1.08;;;;;;;;;;5041056;28;20365;-70
2021/12/13 02:30:47;;;;;;;1.40;1.27;;;;;;;;;;5040774;28;20090;-71
2021/12/13 02:33:35;;;;;;;1.40;1.30;;;;;;;;;;5040329;28;20032;-70
2021/12/13 02:36:05;;;;;;;4.07;1.30;;;;;;;;;;5040805;28;20047;-72
2021/12/13 02:38:32;;;;;;;1.23;1.13;;;;;;;;;;5040109;28;20029;-73
2021/12/13 02:40:58;;;;;;;2.08;1.30;;;;;;;;;;5038749;28;20076;-72
2021/12/13 02:43:28;;;;;;;0.95;0.85;;;;;;;;;;5040240;28;20062;-71
2021/12/13 02:45:56;;;;;;;2.45;1.40;;;;;;;;;;5039796;28;20478;-74
2021/12/13 02:48:46;;;;;;;1.10;0.73;;;;;;;;;;5036557;28;20140;-73
2021/12/13 02:51:26;;;;;;;1.10;1.00;;;;;;;;;;5039529;28;20051;-71
2021/12/13 02:53:55;;;;;;;1.10;1.10;;;;;;;;;;5041271;28;20050;-74
2021/12/13 02:56:27;;;;;;;1.05;0.95;;;;;;;;;;5043877;28;20503;-71
2021/12/13 02:58:54;;;;;;;1.00;0.93;;;;;;;;;;5044554;28;20040;-74
2021/12/13 03:01:31;;;;;;;1.38;1.23;;;;;;;;;;5044562;28;20033;-74
2021/12/13 03:04:00;;;;;;;1.20;1.10;;;;;;;;;;5043393;28;20577;-71
2021/12/13 03:06:34;;;;;;;1.00;0.90;;;;;;;;;;5043443;28;20064;-73
2021/12/13 03:09:05;;;;;;;1.83;1.60;;;;;;;;;;5044437;28;20049;-73
2021/12/13 03:11:33;;;;;;;1.10;1.10;;;;;;;;;;5044405;28;20029;-75
2021/12/13 03:14:07;;;;;;;6.47;1.33;;;;;;;;;;5043444;28;20033;-71
2021/12/13 03:16:50;;;;;;;1.20;1.10;;;;;;;;;;5044326;28;20035;-73
2021/12/13 03:19:42;;;;;;;1.15;0.90;;;;;;;;;;5043477;28;20033;-71
2021/12/13 03:22:38;;;;;;;1.98;1.75;;;;;;;;;;5035300;28;20049;-71
2021/12/13 03:25:09;;;;;;;1.58;1.30;;;;;;;;;;5044377;28;20078;-72
2021/12/13 03:27:48;;;;;;;1.95;1.75;;;;;;;;;;5044469;28;20029;-73
2021/12/13 03:30:18;;;;;;;1.08;1.00;;;;;;;;;;5043328;28;20391;-73
2021/12/13 03:32:52;;;;;;;2.20;1.45;;;;;;;;;;5044451;28;20032;-70
2021/12/13 03:35:23;;;;;;;1.55;1.30;;;;;;;;;;5043684;28;20051;-72
2021/12/13 03:38:06;;;;;;;1.00;1.00;;;;;;;;;;5043810;28;20085;-72
2021/12/13 03:40:34;;;;;;;1.30;1.20;;;;;;;;;;5043179;28;20037;-71
2021/12/13 03:43:07;;;;;;;2.72;1.55;;;;;;;;;;5042472;28;20037;-74
2021/12/13 03:45:39;;;;;;;1.40;1.30;;;;;;;;;;5044071;28;20037;-71
2021/12/13 03:48:07;;;;;;;1.70;1.23;;;;;;;;;;5043872;28;20036;-75
2021/12/13 03:50:37;;;;;;;1.10;1.02;;;;;;;;;;5043082;28;20029;-71
2021/12/13 03:53:17;;;;;;;1.50;1.40;;;;;;;;;;5044014;28;20037;-74
2021/12/13 03:55:46;;;;;;;1.50;1.23;;;;;;;;;;5043776;28;20040;-73
2021/12/13 03:58:15;;;;;;;1.50;1.30;;;;;;;;;;5043754;28;20120;-71
2021/12/13 04:00:52;;;;;;;2.17;1.67;;;;;;;;;;5042529;28;20399;-72
2021/12/13 04:03:20;;;;;;;0.95;0.95;;;;;;;;;;5042726;28;20035;-72
2021/12/13 04:05:47;;;;;;;1.80;1.52;;;;;;;;;;5043225;28;20654;-72
2021/12/13 04:08:16;;;;;;;1.75;1.65;;;;;;;;;;5043497;28;20044;-74
2021/12/13 04:10:48;;;;;;;3.13;1.80;;;;;;;;;;5043518;28;20029;-75
2021/12/13 04:13:17;;;;;;;1.77;1.63;;;;;;;;;;5042640;28;20517;-74
2021/12/13 04:16:08;;;;;;;3.97;1.40;;;;;;;;;;5043113;28;20040;-73
2021/12/13 04:19:06;;;;;;;2.42;1.70;;;;;;;;;;5043255;28;20048;-72
2021/12/13 04:21:48;;;;;;;4.00;2.03;;;;;;;;;;5057628;28;20495;-71
2021/12/13 04:24:26;;;;;;;1.90;1.80;;;;;;;;;;5038390;28;20063;-71
2021/12/13 04:26:59;;;;;;;1.92;1.83;;;;;;;;;;5043048;28;20021;-71
2021/12/13 04:29:29;;;;;;;1.90;1.80;;;;;;;;;;5042962;28;20123;-74
2021/12/13 04:31:56;;;;;;;1.67;1.58;;;;;;;;;;5043073;28;20033;-71
2021/12/13 04:34:25;;;;;;;3.72;1.73;;;;;;;;;;5042122;28;20517;-71
2021/12/13 04:36:54;;;;;;;2.83;1.90;;;;;;;;;;5042935;28;20029;-74
2021/12/13 04:39:30;;;;;;;1.70;1.58;;;;;;;;;;5042899;28;20059;-73
2021/12/13 04:41:59;;;;;;;1.98;1.60;;;;;;;;;;5041736;28;20122;-71
2021/12/13 04:44:57;;;;;;;2.45;1.50;;;;;;;;;;5042572;28;20040;-73
2021/12/13 04:47:34;;;;;;;1.65;1.55;;;;;;;;;;5040478;28;20045;-71
2021/12/13 04:50:13;;;;;;;1.83;1.73;;;;;;;;;;5039541;28;20045;-71
2021/12/13 04:52:40;;;;;;;2.45;2.25;;;;;;;;;;5042665;28;20025;-72
2021/12/13 04:55:10;;;;;;;2.40;1.90;;;;;;;;;;5042477;28;20495;-73
2021/12/13 04:57:38;;;;;;;2.80;2.05;;;;;;;;;;5042016;28;20025;-71
2021/12/13 05:00:13;;;;;;;2.17;1.98;;;;;;;;;;5040338;28;20037;-72
2021/12/13 05:02:46;;;;;;;2.60;2.40;;;;;;;;;;5041869;28;20094;-74
2021/12/13 05:05:13;;;;;;;1.98;1.85;;;;;;;;;;5040500;28;20036;-71
2021/12/13 05:07:39;;;;;;;2.50;2.00;;;;;;;;;;5041253;28;20082;-72
2021/12/13 05:10:05;;;;;;;2.33;2.13;;;;;;;;;;5042265;28;20159;-74
2021/12/13 05:12:31;;;;;;;5.72;2.42;;;;;;;;;;5042467;28;20933;-71
2021/12/13 05:15:00;;;;;;;2.05;1.83;;;;;;;;;;5042397;28;20040;-70
2021/12/13 05:17:32;;;;;;;3.08;2.40;;;;;;;;;;5041590;28;20108;-70
2021/12/13 05:20:16;;;;;;;3.33;2.20;;;;;;;;;;5039910;28;20034;-70
2021/12/13 05:22:47;;;;;;;3.13;2.25;;;;;;;;;;5041620;28;20036;-70
2021/12/13 05:25:34;;;;;;;2.50;2.30;;;;;;;;;;5041972;28;20191;-71
2021/12/13 05:28:22;;;;;;;2.83;2.03;;;;;;;;;;5042334;28;20419;-71
2021/12/13 05:30:54;;;;;;;2.25;1.80;;;;;;;;;;5036103;28;20499;-71
2021/12/13 05:33:21;;;;;;;2.22;1.80;;;;;;;;;;5041438;28;20075;-72
2021/12/13 05:35:50;;;;;;;2.22;2.03;;;;;;;;;;5041700;28;20033;-71
2021/12/13 05:38:29;;;;;;;2.15;1.95;;;;;;;;;;5041049;28;20037;-72
2021/12/13 05:40:56;;;;;;;3.58;2.22;;;;;;;;;;5038393;28;20033;-73
2021/12/13 05:43:29;;;;;;;4.22;2.40;;;;;;;;;;5041947;28;20082;-72
2021/12/13 05:46:03;;;;;;;2.22;2.03;;;;;;;;;;5041896;28;20044;-74
2021/12/13 05:48:35;;;;;;;2.50;2.30;;;;;;;;;;5041674;28;20032;-72
2021/12/13 05:51:04;;;;;;;3.75;2.47;;;;;;;;;;5040838;28;20135;-70
2021/12/13 05:53:36;;;;;;;2.28;2.00;;;;;;;;;;5040706;28;20037;-72
2021/12/13 05:56:11;;;;;;;2.03;1.90;;;;;;;;;;5041149;28;20071;-75
2021/12/13 05:58:50;;;;;;;2.53;2.33;;;;;;;;;;5041312;28;20501;-72
2021/12/13 06:01:21;;;;;;;2.53;2.13;;;;;;;;;;5040279;28;20052;-71
2021/12/13 06:04:13;;;;;;;2.40;2.20;;;;;;;;;;5039838;28;20048;-74
2021/12/13 06:06:51;;;;;;;3.00;1.80;;;;;;;;;;5042814;28;20174;-71
2021/12/13 06:09:46;;;;;;;2.00;1.80;;;;;;;;;;5040478;28;20036;-72
2021/12/13 06:12:40;;;;;;;2.03;1.92;;;;;;;;;;5040956;28;20040;-73
2021/12/13 06:15:15;;;;;;;2.72;2.40;;;;;;;;;;5036411;28;20515;-74
2021/12/13 06:17:44;;;;;;;2.20;2.00;;;;;;;;;;5038316;28;20251;-71
2021/12/13 06:20:14;;;;;;;2.10;1.92;;;;;;;;;;5040399;28;20041;-73
2021/12/13 06:22:39;;;;;;;2.60;2.40;;;;;;;;;;5040947;28;20834;-73
2021/12/13 06:25:10;;;;;;;2.67;2.47;;;;;;;;;;5040267;28;20032;-71
2021/12/13 06:27:57;;;;;;;17.67;2.85;;;;;;;;;;5040970;28;20032;-71
2021/12/13 06:30:24;;;;;;;4.20;2.38;;;;;;;;;;5040200;28;20049;-72
2021/12/13 06:32:59;;;;;;;3.75;2.90;;;;;;;;;;5041029;28;20040;-72
2021/12/13 06:35:28;;;;;;;9.35;2.50;;;;;;;;;;5040057;28;20164;-72
2021/12/13 06:37:53;;;;;;;26.55;3.30;;;;;;;;;;5040896;28;20032;-71
2021/12/13 06:40:27;;;;;;;5.45;2.97;;;;;;;;;;5040581;28;20041;-73
2021/12/13 06:42:55;;;;;;;44.60;3.88;;;;;;;;;;5041011;28;20041;-72
2021/12/13 06:45:25;;;;;;;75.78;4.28;;;;;;;;;;5040758;28;20044;-73
2021/12/13 06:47:54;;;;;;;2.53;2.33;;;;;;;;;;5039780;28;20040;-73
2021/12/13 06:50:29;;;;;;;2.40;2.20;;;;;;;;;;5040204;28;20037;-73
2021/12/13 06:53:18;;;;;;;3.00;2.60;;;;;;;;;;5041046;28;20377;-71
2021/12/13 06:55:45;;;;;;;2.35;2.15;;;;;;;;;;5040699;28;20040;-74
2021/12/13 06:58:26;;;;;;;3.83;2.78;;;;;;;;;;5039130;28;20033;-71
2021/12/13 07:00:55;;;;;;;2.45;2.25;;;;;;;;;;5039975;28;20125;-71
2021/12/13 07:03:24;;;;;;;2.88;2.58;;;;;;;;;;5040230;28;20033;-70
2021/12/13 07:05:56;;;;;;;2.72;2.45;;;;;;;;;;5040111;28;20091;-71
2021/12/13 07:08:31;;;;;;;3.00;2.70;;;;;;;;;;5039167;28;20045;-72
2021/12/13 07:11:05;;;;;;;2.55;2.10;;;;;;;;;;5039756;28;20127;-72
2021/12/13 07:13:42;;;;;;;2.75;2.55;;;;;;;;;;5038886;28;20029;-71
2021/12/13 07:16:12;;;;;;;4.70;3.00;;;;;;;;;;5040064;28;20103;-72
2021/12/13 07:18:47;;;;;;;2.90;2.65;;;;;;;;;;5040021;28;20079;-71
2021/12/13 07:21:17;;;;;;;4.20;2.65;;;;;;;;;;5038992;28;20091;-73
2021/12/13 07:24:05;;;;;;;3.45;3.15;;;;;;;;;;5040461;28;20048;-73
2021/12/13 07:26:42;;;;;;;7.45;3.15;;;;;;;;;;5040258;28;20742;-72
2021/12/13 07:29:12;;;;;;;3.80;3.22;;;;;;;;;;5039882;28;20071;-72
2021/12/13 07:31:42;;;;;;;4.88;3.70;;;;;;;;;;5039139;28;20040;-73
2021/12/13 07:34:13;;;;;;;6.25;3.85;;;;;;;;;;5040136;28;20052;-74
2021/12/13 07:36:39;;;;;;;5.55;3.53;;;;;;;;;;5040076;28;20479;-71
2021/12/13 07:39:12;;;;;;;3.83;3.30;;;;;;;;;;5040072;28;20086;-71
2021/12/13 07:41:43;;;;;;;4.93;3.35;;;;;;;;;;5041511;28;20079;-71
2021/12/13 07:44:13;;;;;;;3.75;3.45;;;;;;;;;;5044094;28;20059;-71
2021/12/13 07:46:39;;;;;;;3.55;2.72;;;;;;;;;;5043576;28;20045;-71
2021/12/13 07:49:10;;;;;;;3.47;3.00;;;;;;;;;;5043665;28;20039;-70
2021/12/13 07:51:40;;;;;;;4.30;3.50;;;;;;;;;;5043718;28;20083;-70
2021/12/13 07:54:13;;;;;;;4.43;3.25;;;;;;;;;;5042943;28;20078;-70
2021/12/13 07:56:47;;;;;;;4.53;3.65;;;;;;;;;;5043598;28;20450;-70
2021/12/13 07:59:15;;;;;;;5.88;3.22;;;;;;;;;;5043639;28;20059;-70
2021/12/13 08:01:52;;;;;;;8.23;3.70;;;;;;;;;;5043124;28;20041;-71
2021/12/13 08:04:26;;;;;;;7.30;3.72;;;;;;;;;;5025180;28;20036;-71
2021/12/13 08:07:07;;;;;;;5.15;4.13;;;;;;;;;;5043352;28;20043;-70
2021/12/13 08:09:33;;;;;;;4.95;4.18;;;;;;;;;;5043556;28;20045;-70
2021/12/13 08:12:12;;;;;;;4.85;4.32;;;;;;;;;;5043468;28;20029;-70
2021/12/13 08:14:42;;;;;;;5.63;3.53;;;;;;;;;;5041408;28;20056;-71
2021/12/13 08:17:18;;;;;;;7.20;4.70;;;;;;;;;;5042961;28;20037;-71
2021/12/13 08:20:04;;;;;;;6.35;3.88;;;;;;;;;;5043425;28;20537;-71
2021/12/13 08:22:31;;;;;;;7.97;4.75;;;;;;;;;;5041806;28;20025;-71
2021/12/13 08:25:07;;;;;;;7.75;4.15;;;;;;;;;;5043153;28;20086;-70
2021/12/13 08:27:41;;;;;;;7.35;5.28;;;;;;;;;;5043030;28;20071;-72
2021/12/13 08:33:59;;;;;;;12.35;5.70;;;;;;;;;;5042243;28;20043;-72
2021/12/13 08:36:24;;;;;;;11.23;6.70;;;;;;;;;;5041697;28;21157;-71
2021/12/13 08:39:02;;;;;;;60.03;7.97;;;;;;;;;;5042065;28;20112;-72
2021/12/13 08:41:33;;;;;;;238.55;9.00;;;;;;;;;;5042475;28;20033;-72
2021/12/13 08:44:10;;;;;;;98.50;5.85;;;;;;;;;;5042703;28;20032;-72
2021/12/13 08:46:51;;;;;;;97.30;6.72;;;;;;;;;;5041658;28;20490;-76
2021/12/13 08:49:38;;;;;;;128.88;5.50;;;;;;;;;;5040096;28;20110;-73
2021/12/13 08:52:15;;;;;;;50.92;5.60;;;;;;;;;;5039268;28;20040;-72
2021/12/13 08:54:53;;;;;;;17.67;5.07;;;;;;;;;;5041338;28;20040;-73
2021/12/13 08:58:07;;;;;;;8.13;5.32;;;;;;;;;;5042806;28;20078;-72
2021/12/13 09:00:58;;;;;;;7.38;5.30;;;;;;;;;;4998935;28;20998;-72
2021/12/13 09:03:39;;;;;;;11.73;5.53;;;;;;;;;;5041416;28;20036;-73
2021/12/13 09:06:17;;;;;;;8.00;5.25;;;;;;;;;;5040457;28;20048;-73
2021/12/13 09:08:53;;;;;;;10.00;6.70;;;;;;;;;;5042081;28;20079;-71
2021/12/13 09:11:33;;;;;;;77.65;7.38;;;;;;;;;;5040393;28;20044;-74
2021/12/13 09:14:13;;;;;;;41.35;8.07;;;;;;;;;;5041888;28;20037;-73
2021/12/13 09:16:53;;;;;;;29.17;6.55;;;;;;;;;;5042104;28;20410;-73
2021/12/13 09:19:23;;;;;;;63.60;6.70;;;;;;;;;;5042098;28;20048;-72
2021/12/13 09:22:04;;;;;;;19.83;5.72;;;;;;;;;;5041074;28;20046;-72
2021/12/13 09:24:35;;;;;;;35.45;6.82;;;;;;;;;;5041476;28;20033;-71
2021/12/13 09:27:27;;;;;;;28.52;6.30;;;;;;;;;;5041277;28;20037;-71
2021/12/13 09:30:12;;;;;;;9.87;5.77;;;;;;;;;;5041461;28;20352;-71
2021/12/13 09:33:00;;;;;;;36.53;6.07;;;;;;;;;;5037802;28;20293;-71
2021/12/13 09:35:45;;;;;;;17.38;5.90;;;;;;;;;;5041045;28;20040;-72
2021/12/13 09:38:17;;;;;;;44.05;6.10;;;;;;;;;;5040423;28;20032;-71
2021/12/13 09:40:44;;;;;;;13.30;5.53;;;;;;;;;;5041227;28;20068;-71
2021/12/13 09:43:10;;;;;;;45.83;5.93;;;;;;;;;;5040483;28;20507;-73
2021/12/13 09:45:48;;;;;;;23.50;5.25;;;;;;;;;;5041642;28;20028;-71
2021/12/13 09:52:00;;;;;;;7.97;5.15;;;;;;;;;;5021401;28;20047;-72
2021/12/13 09:54:34;;;;;;;10.40;4.82;;;;;;;;;;5040957;28;20037;-73
2021/12/13 09:57:04;;;;;;;11.48;4.95;;;;;;;;;;5040588;28;20606;-73
2021/12/13 09:59:35;;;;;;;6.20;4.80;;;;;;;;;;5042068;28;20033;-73
2021/12/13 10:02:04;;;;;;;13.27;4.70;;;;;;;;;;5041749;28;20128;-72
2021/12/13 10:04:35;;;;;;;8.00;4.55;;;;;;;;;;5041199;28;20054;-72
2021/12/13 10:07:06;;;;;;;5.33;4.30;;;;;;;;;;5041895;28;20089;-73
2021/12/13 10:09:47;;;;;;;13.07;4.82;;;;;;;;;;5042394;28;20063;-73
2021/12/13 10:12:20;;;;;;;8.52;4.13;;;;;;;;;;5042646;28;20067;-73
2021/12/13 10:14:51;;;;;;;6.18;4.45;;;;;;;;;;5042644;28;20032;-73
2021/12/13 10:17:21;;;;;;;5.23;4.20;;;;;;;;;;5040877;28;20033;-73
2021/12/13 10:19:51;;;;;;;8.00;3.80;;;;;;;;;;5042235;28;20084;-73
2021/12/13 10:22:21;;;;;;;5.20;3.85;;;;;;;;;;5041589;28;20040;-73
2021/12/13 10:24:58;;;;;;;6.20;4.75;;;;;;;;;;5041933;28;20040;-73
2021/12/13 10:27:24;;;;;;;7.65;4.03;;;;;;;;;;5040606;28;20767;-72
2021/12/13 10:29:53;;;;;;;6.07;4.10;;;;;;;;;;5039881;28;20487;-73
2021/12/13 10:32:33;;;;;;;4.97;4.45;;;;;;;;;;5039604;28;20947;-73
2021/12/13 10:35:11;;;;;;;7.57;4.43;;;;;;;;;;5040225;28;20032;-73
2021/12/13 10:37:40;;;;;;;6.18;4.47;;;;;;;;;;5039867;28;20033;-70
2021/12/13 10:40:17;;;;;;;13.23;4.70;;;;;;;;;;5040401;28;20044;-71
2021/12/13 10:43:02;;;;;;;8.45;4.50;;;;;;;;;;5039370;28;20037;-70
2021/12/13 10:45:38;;;;;;;9.57;4.57;;;;;;;;;;5038406;28;20044;-70
2021/12/13 10:48:09;;;;;;;11.65;4.68;;;;;;;;;;5037800;28;20052;-70
2021/12/13 10:50:41;;;;;;;7.85;4.65;;;;;;;;;;5039248;28;20601;-70
2021/12/13 10:53:10;;;;;;;;;;;;;;;;;;5040125;28;20048;-70
2021/12/13 10:55:44;;;;;;;5.18;4.03;;;;;;;;;;5039170;28;19917;-70
2021/12/13 10:58:13;;;;;;;7.43;4.18;;;;;;;;;;5039963;28;20868;-70
2021/12/13 11:00:42;;;;;;;8.30;4.63;;;;;;;;;;5039602;28;20462;-70
2021/12/13 11:03:12;;;;;;;11.13;4.10;;;;;;;;;;5039248;28;20036;-70
2021/12/13 11:05:38;;;;;;;5.35;4.13;;;;;;;;;;5040449;28;20071;-70
2021/12/13 11:08:06;;;;;;;4.05;3.35;;;;;;;;;;5040658;28;20051;-70
2021/12/13 11:10:42;;;;;;;4.80;3.58;;;;;;;;;;5039594;28;20040;-70
2021/12/13 11:13:08;;;;;;;7.65;4.07;;;;;;;;;;5040533;28;20029;-70
2021/12/13 11:15:37;;;;;;;4.55;3.78;;;;;;;;;;5042438;28;20036;-70
2021/12/13 11:18:07;;;;;;;6.60;4.18;;;;;;;;;;5044813;28;20389;-71
2021/12/13 11:20:38;;;;;;;6.72;4.13;;;;;;;;;;5044431;28;20036;-71
2021/12/13 11:23:05;;;;;;;4.95;3.60;;;;;;;;;;5043851;28;20041;-71
2021/12/13 11:25:39;;;;;;;5.82;3.90;;;;;;;;;;5044644;28;20040;-71
2021/12/13 11:28:07;;;;;;;4.07;3.40;;;;;;;;;;5045278;28;20553;-71
2021/12/13 11:30:34;;;;;;;4.60;3.95;;;;;;;;;;5044836;28;20044;-70
2021/12/13 11:33:00;;;;;;;5.30;3.90;;;;;;;;;;5043611;28;20029;-71
2021/12/13 11:35:37;;;;;;;5.40;3.53;;;;;;;;;;5044335;28;20040;-71
2021/12/13 11:38:14;;;;;;;4.53;3.20;;;;;;;;;;5044549;28;20569;-71
2021/12/13 11:40:57;;;;;;;4.25;3.55;;;;;;;;;;5044131;28;20068;-71
2021/12/13 11:43:47;;;;;;;5.03;3.60;;;;;;;;;;5043329;28;20771;-71
2021/12/13 11:46:29;;;;;;;4.90;3.35;;;;;;;;;;5044135;28;20074;-71
2021/12/13 11:49:19;;;;;;;8.57;4.38;;;;;;;;;;5044138;28;20037;-71
2021/12/13 11:51:56;;;;;;;6.47;3.65;;;;;;;;;;5043523;28;20040;-70
2021/12/13 11:54:48;;;;;;;5.50;4.15;;;;;;;;;;5042686;28;20049;-70
2021/12/13 11:57:56;;;;;;;5.22;4.68;;;;;;;;;;5043668;28;20040;-69
2021/12/13 12:00:41;;;;;;;8.35;5.28;;;;;;;;;;5043510;28;20032;-69
2021/12/13 12:03:44;;;;;;;5.43;4.28;;;;;;;;;;5044135;28;20036;-69
2021/12/13 12:06:47;;;;;;;4.90;4.30;;;;;;;;;;5042287;28;20036;-69
2021/12/13 12:09:21;;;;;;;5.72;4.32;;;;;;;;;;5043636;28;20037;-69
2021/12/13 12:12:08;;;;;;;6.10;4.95;;;;;;;;;;5043810;28;20103;-69
2021/12/13 12:14:34;;;;;;;7.32;4.95;;;;;;;;;;5043841;28;20048;-70
2021/12/13 12:17:02;;;;;;;6.82;4.13;;;;;;;;;;5043143;28;20041;-70
2021/12/13 12:19:31;;;;;;;7.38;5.10;;;;;;;;;;5042775;28;20510;-70
2021/12/13 12:22:04;;;;;;;6.05;4.80;;;;;;;;;;5043486;28;20041;-70
2021/12/13 12:24:33;;;;;;;4.25;3.47;;;;;;;;;;5043627;28;20025;-70
2021/12/13 12:27:14;;;;;;;5.15;4.55;;;;;;;;;;5043493;28;20037;-70
2021/12/13 12:29:44;;;;;;;4.88;3.90;;;;;;;;;;5043970;28;20394;-71
2021/12/13 12:32:23;;;;;;;7.53;4.00;;;;;;;;;;5040281;28;20036;-71
2021/12/13 12:34:54;;;;;;;5.93;3.88;;;;;;;;;;5041411;28;21203;-71
2021/12/13 12:37:25;;;;;;;18.95;4.25;;;;;;;;;;5040835;28;20517;-71
2021/12/13 12:40:03;;;;;;;5.40;4.32;;;;;;;;;;5040445;28;20043;-71
2021/12/13 12:42:50;;;;;;;7.38;5.13;;;;;;;;;;5040679;28;20041;-72
2021/12/13 12:45:26;;;;;;;6.82;4.80;;;;;;;;;;5041369;28;20120;-71
2021/12/13 12:48:24;;;;;;;5.07;4.00;;;;;;;;;;5041220;28;20028;-71
2021/12/13 12:50:54;;;;;;;7.03;4.00;;;;;;;;;;5040031;28;20032;-71
2021/12/13 12:53:33;;;;;;;4.53;3.97;;;;;;;;;;5041487;28;20029;-71
2021/12/13 12:56:28;;;;;;;12.32;4.65;;;;;;;;;;5041939;28;20033;-71
2021/12/13 12:59:19;;;;;;;5.82;4.13;;;;;;;;;;5032407;28;20045;-71
2021/12/13 13:01:46;;;;;;;6.57;4.60;;;;;;;;;;5039680;28;20071;-71
2021/12/13 13:04:24;;;;;;;4.82;3.63;;;;;;;;;;5041688;28;20054;-71
2021/12/13 13:07:06;;;;;;;6.80;4.13;;;;;;;;;;5041315;28;20488;-71
2021/12/13 13:09:52;;;;;;;5.90;4.65;;;;;;;;;;5041190;28;21050;-74
2021/12/13 13:12:24;;;;;;;7.50;4.38;;;;;;;;;;5040889;28;20490;-71
2021/12/13 13:15:01;;;;;;;7.30;4.63;;;;;;;;;;5040069;28;20318;-71
2021/12/13 13:17:31;;;;;;;5.25;3.90;;;;;;;;;;5039211;28;20045;-71
2021/12/13 13:20:12;;;;;;;6.10;4.40;;;;;;;;;;5041569;28;20033;-71
2021/12/13 13:22:41;;;;;;;4.90;4.00;;;;;;;;;;5039866;28;20041;-71
2021/12/13 13:25:18;;;;;;;7.90;4.28;;;;;;;;;;5042006;28;20048;-71
2021/12/13 13:27:43;;;;;;;5.95;4.35;;;;;;;;;;5040577;28;20040;-71
2021/12/13 13:30:16;;;;;;;6.80;4.43;;;;;;;;;;5042091;28;20036;-71
2021/12/13 13:32:42;;;;;;;6.43;3.72;;;;;;;;;;5041934;28;20498;-71
2021/12/13 13:35:08;;;;;;;12.32;4.40;;;;;;;;;;5040838;28;20025;-71
2021/12/13 13:37:37;;;;;;;9.90;4.80;;;;;;;;;;5041686;28;20850;-70
2021/12/13 13:40:14;;;;;;;10.32;4.70;;;;;;;;;;5042024;28;20044;-71
2021/12/13 13:42:47;;;;;;;23.98;5.28;;;;;;;;;;5041065;28;20025;-72
2021/12/13 13:45:21;;;;;;;8.10;5.47;;;;;;;;;;5041784;28;20087;-72
2021/12/13 13:48:00;;;;;;;9.60;5.10;;;;;;;;;;5042618;28;20040;-73
2021/12/13 13:50:37;;;;;;;12.27;5.13;;;;;;;;;;5040986;28;20496;-72
2021/12/13 13:53:39;;;;;;;9.63;5.18;;;;;;;;;;5041871;28;20044;-72
2021/12/13 13:56:21;;;;;;;7.35;5.30;;;;;;;;;;5040446;28;20052;-72
2021/12/13 13:59:00;;;;;;;7.43;5.00;;;;;;;;;;5041626;28;20040;-72
2021/12/13 14:01:28;;;;;;;6.95;4.72;;;;;;;;;;5041173;28;20048;-72
2021/12/13 14:03:58;;;;;;;16.63;4.65;;;;;;;;;;5040565;28;20044;-72
2021/12/13 14:06:34;;;;;;;9.82;5.80;;;;;;;;;;5041061;28;20045;-71
2021/12/13 14:09:11;;;;;;;16.67;6.88;;;;;;;;;;5040286;28;20032;-71
2021/12/13 14:11:53;;;;;;;9.52;6.05;;;;;;;;;;5041232;28;20075;-72
2021/12/13 14:14:20;;;;;;;20.90;7.95;;;;;;;;;;5041607;28;20060;-71
2021/12/13 14:16:50;;;;;;;90.90;7.82;;;;;;;;;;5041415;28;20483;-73
2021/12/13 14:19:35;;;;;;;24.88;7.18;;;;;;;;;;5040251;28;20044;-70
2021/12/13 14:22:02;;;;;;;9.23;6.05;;;;;;;;;;5040702;28;20072;-72
2021/12/13 14:24:40;;;;;;;183.20;10.00;;;;;;;;;;5039163;28;20144;-71
2021/12/13 14:27:12;;;;;;;290.25;12.48;;;;;;;;;;5039322;28;20036;-71
2021/12/13 14:29:39;;;;;;;16.83;6.63;;;;;;;;;;5039281;28;20137;-70
2021/12/13 14:32:11;;;;;;;11.65;5.70;;;;;;;;;;5039350;28;20037;-69
2021/12/13 14:34:38;;;;;;;50.38;5.78;;;;;;;;;;5039727;28;20876;-70
2021/12/13 14:37:04;;;;;;;182.05;7.90;;;;;;;;;;5039127;28;20048;-71
2021/12/13 14:39:42;;;;;;;106.55;6.57;;;;;;;;;;5039376;28;20036;-71
2021/12/13 14:42:16;;;;;;;116.32;6.53;;;;;;;;;;5039773;28;20063;-68
2021/12/13 14:44:48;;;;;;;161.40;7.13;;;;;;;;;;5039453;28;20672;-72
2021/12/13 14:47:23;;;;;;;147.80;7.63;;;;;;;;;;5039344;28;20087;-73
2021/12/13 14:49:58;;;;;;;161.50;8.25;;;;;;;;;;5038812;28;20037;-73
2021/12/13 14:52:28;;;;;;;128.82;6.85;;;;;;;;;;5038293;28;20380;-74
2021/12/13 14:54:58;;;;;;;84.57;6.25;;;;;;;;;;5039359;28;20135;-71
2021/12/13 14:57:28;;;;;;;121.10;6.70;;;;;;;;;;5039276;28;20407;-72
2021/12/13 15:00:17;;;;;;;126.18;7.38;;;;;;;;;;5039382;28;20259;-73
2021/12/13 15:02:48;;;;;;;16.00;5.78;;;;;;;;;;5038372;28;20086;-72
2021/12/13 15:05:20;;;;;;;113.93;8.63;;;;;;;;;;5039659;28;20056;-73
2021/12/13 15:07:49;;;;;;;;;;;;;;;;;;5040868;28;20044;-74
2021/12/13 15:10:14;;;;;;;96.45;6.90;;;;;;;;;;5040504;28;19932;-71
2021/12/13 15:12:43;;;;;;;58.22;6.50;;;;;;;;;;5039400;28;20021;-73
2021/12/13 15:15:23;;;;;;;52.30;7.82;;;;;;;;;;5039920;28;20040;-71
2021/12/13 15:18:04;;;;;;;61.25;7.07;;;;;;;;;;5040394;28;20511;-75
2021/12/13 15:20:36;;;;;;;59.28;7.25;;;;;;;;;;5040368;28;20039;-74
2021/12/13 15:23:07;;;;;;;82.45;7.93;;;;;;;;;;5040588;28;20048;-72
2021/12/13 15:25:49;;;;;;;35.72;7.00;;;;;;;;;;5039890;28;20048;-71
2021/12/13 15:28:52;;;;;;;51.35;6.70;;;;;;;;;;5040320;28;20051;-72
2021/12/13 15:31:22;;;;;;;29.45;6.35;;;;;;;;;;5032926;28;20049;-75
2021/12/13 15:33:51;;;;;;;47.90;7.13;;;;;;;;;;5040407;28;20078;-74
2021/12/13 15:36:18;;;;;;;90.30;8.50;;;;;;;;;;5037120;28;20484;-72
2021/12/13 15:38:45;;;;;;;108.88;7.05;;;;;;;;;;5039878;28;20041;-75